首页
METAR-TAF:

METAR-TAF

机场 :

胡德堡 / 基林, 得克萨斯州, 美国

纬度: 31-04N, 经度: 097-50W, 海拔: 309米

当前天气观测

该预报发布于44分钟前的20:55 UTC
风速16节,风向南转南东,有时为22节阵风
温度 28°C
湿度 45%
气压 1015 hPa
能見度: 12.9公里
天空无云

METAR: KGRK 212055Z AUTO 16016G22KT 8SM CLR 28/15 A2996 RMK AO2 SLP138 T02750152

时间: 15:39 (21:39 UTC)

预报

该预报发布于5小时和39分钟前的16:00 UTC
预报有效从21日的 16点(UTC)到 22日的 22点(UTC)
风速10节,风向,有时为20节阵风
能见度10公里或以上
少量云层高于1500英尺
成为
从 21日的 19点(UTC)到 21日的 20点(UTC)
风速15节,风向,有时为25节阵风
能见度10公里或以上
天空无云
成为
从 22日的 00点(UTC)到 22日的 01点(UTC)
风速12节,风向
能见度10公里或以上
天空无云
成为
从 22日的 06点(UTC)到 22日的 07点(UTC)
风速10节,风向
能见度10公里或以上
散云层高于700英尺
多云层高于1500英尺
成为
从 22日的 16点(UTC)到 22日的 17点(UTC)
风速15节,风向西转西南,有时为20节阵风
能见度10公里或以上
天空无云
成为
从 22日的 20点(UTC)到 22日的 21点(UTC)
风速15节,风向西转西北,有时为25节阵风
能见度10公里或以上
天空无云

TAF: KGRK 211600Z 2116/2222 19010G20KT 9999 FEW015 QNH3012INS BECMG 2119/2120 18015G25KT 9999 SKC QNH3005INS BECMG 2200/2201 17012KT 9999 SKC QNH2989INS BECMG 2206/2207 18010KT 9999 SCT007 BKN015 QNH2991INS BECMG 2216/2217 25015G20KT 9999 SKC QNH2986INS BECMG 2220/2221 30015G25KT 9999 SKC QNH2978INS TX27/2121Z TN16/2210Z

超过4000个机场的气象观测和天气预报(METAR&TAF报告)。

可查询的气象台以黄色和红色小点在地图上表示。

将鼠标移到小点上方,可查看气象台名称。

然后点击查看天气观测和预报。

如需切换地图:点击带黑十字的绿色按钮放大地图;点击带横线的绿色按钮缩小地图;或者点击绿色箭头查看邻近地区的地图。


METAR-TAF: